This is the latest recevied weather packets stored in our database for station/object DJ2RF. If no packets are shown the sender has not sent any weather packets the latest 1 day(s).
| Time | Temp. | Humidity | Pressure | Rain* | Wind** | Luminosity | Snow |
|---|---|---|---|---|---|---|---|
| 1777991969 | 17.22° C | 68% | 1008.4 hPa | 0 mm | 0 m/s | - | - |
| 1777991377 | 17.22° C | 67% | 1008.3 hPa | 0 mm | 0 m/s | - | - |
| 1777990793 | 17.22° C | 68% | 1008.2 hPa | 0 mm | 0 m/s | - | - |
| 1777990196 | 18.33° C | 65% | 1008.2 hPa | 0 mm | 0 m/s | - | - |
| 1777989657 | 19.44° C | 62% | 1008.3 hPa | 0 mm | 0 m/s | - | - |
| 1777989099 | 21.11° C | 56% | 1008.4 hPa | 0 mm | 0 m/s | - | - |
| 1777988535 | 22.22° C | 53% | 1008.1 hPa | 0 mm | 0 m/s | - | - |
| 1777987970 | 22.22° C | 51% | 1008 hPa | 0 mm | 0 m/s | - | - |
| 1777987460 | 22.22° C | 49% | 1007.8 hPa | 0 mm | 0 m/s | - | - |
| 1777986978 | 22.78° C | 48% | 1007.9 hPa | 0 mm | 0 m/s | - | - |
| 1777986452 | 23.33° C | 49% | 1007.8 hPa | 0 mm | 0 m/s | - | - |
| 1777985866 | 23.33° C | 47% | 1007.9 hPa | 0 mm | 0 m/s | - | - |
| 1777985317 | 23.33° C | 48% | 1008 hPa | 0 mm | 0 m/s | - | - |
| 1777984782 | 23.33° C | 49% | 1008.1 hPa | 0 mm | 0 m/s | - | - |
| 1777984216 | 23.89° C | 48% | 1008.1 hPa | 0 mm | 0 m/s | - | - |
| 1777983707 | 23.89° C | 48% | 1008.1 hPa | 0 mm | 0 m/s | - | - |
| 1777983206 | 23.89° C | 49% | 1008.1 hPa | 0 mm | 0 m/s | - | - |
| 1777982653 | 23.89° C | 49% | 1008.2 hPa | 0 mm | 0 m/s | - | - |
| 1777982163 | 23.89° C | 52% | 1008.2 hPa | 0 mm | 0 m/s | - | - |
| 1777981627 | 23.33° C | 50% | 1008.4 hPa | 0 mm | 0 m/s | - | - |
| 1777981094 | 23.33° C | 51% | 1008.4 hPa | 0 mm | 0 m/s | - | - |
| 1777980617 | 23.33° C | 50% | 1008.4 hPa | 0 mm | 0 m/s | - | - |
| 1777980052 | 23.33° C | 51% | 1008.5 hPa | 0 mm | 0 m/s | - | - |
| 1777979562 | 22.78° C | 54% | 1008.7 hPa | 0 mm | 0 m/s | - | - |
| 1777979073 | 22.78° C | 54% | 1008.7 hPa | 0 mm | 0 m/s | - | - |
* Rain latest hour (hover to see other rain measurements)
** Current wind speed in m/s (hover to see current wind gust speed)